Time;durP1;ratioP1;P1;durP2;ratioP2;P2;SDS_P1;SDS_P2;PMS_P1;PMS_P2;Temp;Humidity;BMP_temperature;BMP_pressure;BME280_temperature;BME280_humidity;BME280_pressure;Samples;Min_cycle;Max_cycle;Signal;HPM_P1;HPM_P2
2021/12/15 00:02:11;;;;;;;45.70;25.13;;;;;;;;;;5031333;28;20075;-88
2021/12/15 00:04:37;;;;;;;49.75;24.42;;;;;;;;;;5014023;28;20037;-87
2021/12/15 00:07:02;;;;;;;45.22;23.70;;;;;;;;;;5031117;28;20030;-87
2021/12/15 00:09:29;;;;;;;45.60;23.17;;;;;;;;;;5013031;28;20025;-87
2021/12/15 00:11:54;;;;;;;49.58;23.33;;;;;;;;;;5015661;28;20072;-88
2021/12/15 00:14:20;;;;;;;49.70;24.05;;;;;;;;;;5031123;28;20109;-87
2021/12/15 00:16:47;;;;;;;51.15;24.63;;;;;;;;;;5030708;28;20104;-87
2021/12/15 00:19:12;;;;;;;46.88;22.65;;;;;;;;;;5012976;28;20148;-87
2021/12/15 00:21:38;;;;;;;45.53;21.80;;;;;;;;;;5031061;28;20096;-87
2021/12/15 00:24:04;;;;;;;39.47;20.50;;;;;;;;;;5030421;28;20071;-87
2021/12/15 00:26:29;;;;;;;48.60;21.25;;;;;;;;;;5030491;28;20452;-87
2021/12/15 00:28:55;;;;;;;43.58;19.05;;;;;;;;;;5030574;28;20093;-87
2021/12/15 00:31:20;;;;;;;45.13;22.85;;;;;;;;;;5012999;28;20022;-87
2021/12/15 00:33:45;;;;;;;45.97;21.90;;;;;;;;;;5012536;28;20021;-87
2021/12/15 00:36:11;;;;;;;52.90;22.10;;;;;;;;;;5031171;28;20024;-87
2021/12/15 00:38:37;;;;;;;46.65;21.67;;;;;;;;;;5012879;28;20060;-88
2021/12/15 00:41:03;;;;;;;46.88;21.02;;;;;;;;;;5030481;28;20029;-87
2021/12/15 00:43:28;;;;;;;49.35;22.30;;;;;;;;;;5012151;28;20783;-88
2021/12/15 00:45:53;;;;;;;50.53;22.88;;;;;;;;;;5012633;28;20026;-88
2021/12/15 00:48:19;;;;;;;48.35;22.02;;;;;;;;;;5030351;28;20060;-87
2021/12/15 00:50:45;;;;;;;50.85;23.10;;;;;;;;;;5012272;28;20125;-87
2021/12/15 00:53:11;;;;;;;46.42;22.40;;;;;;;;;;5012348;28;20017;-87
2021/12/15 00:55:37;;;;;;;47.80;23.23;;;;;;;;;;5012743;28;20035;-87
2021/12/15 00:58:03;;;;;;;55.63;23.83;;;;;;;;;;5013043;28;20456;-87
2021/12/15 01:00:31;;;;;;;52.25;22.40;;;;;;;;;;5030267;28;20017;-88
2021/12/15 01:02:56;;;;;;;41.95;19.80;;;;;;;;;;5012243;28;20067;-87
2021/12/15 01:05:23;;;;;;;43.67;19.63;;;;;;;;;;5012494;28;20049;-87
2021/12/15 01:07:49;;;;;;;50.72;20.75;;;;;;;;;;5012247;28;20029;-88
2021/12/15 01:10:19;;;;;;;40.30;19.30;;;;;;;;;;5012575;28;20080;-87
2021/12/15 01:20:32;;;;;;;40.97;17.30;;;;;;;;;;5030900;28;20087;-87
2021/12/15 01:23:01;;;;;;;38.95;17.83;;;;;;;;;;5029901;28;20092;-87
2021/12/15 01:25:41;;;;;;;27.25;14.60;;;;;;;;;;5011986;28;20025;-87
2021/12/15 01:28:07;;;;;;;34.88;15.40;;;;;;;;;;5011844;28;20366;-87
2021/12/15 01:30:34;;;;;;;34.75;15.60;;;;;;;;;;5029683;28;20552;-87
2021/12/15 01:33:00;;;;;;;37.25;15.85;;;;;;;;;;5029516;28;20026;-87
2021/12/15 01:35:26;;;;;;;39.17;16.50;;;;;;;;;;5029924;28;20024;-88
2021/12/15 01:37:52;;;;;;;40.30;15.63;;;;;;;;;;5029728;28;20585;-87
2021/12/15 01:40:32;;;;;;;29.70;13.85;;;;;;;;;;5029496;28;20096;-87
2021/12/15 01:42:58;;;;;;;35.58;14.30;;;;;;;;;;5030470;28;20042;-87
2021/12/15 01:48:10;;;;;;;30.65;13.82;;;;;;;;;;5029995;28;20049;-88
2021/12/15 01:50:36;;;;;;;33.03;12.98;;;;;;;;;;5030003;28;20124;-87
2021/12/15 01:53:01;;;;;;;26.77;12.35;;;;;;;;;;5029930;28;20021;-87
2021/12/15 01:55:27;;;;;;;24.20;11.15;;;;;;;;;;5013863;28;20025;-88
2021/12/15 01:57:52;;;;;;;34.05;12.63;;;;;;;;;;5015563;28;20056;-87
2021/12/15 02:00:24;;;;;;;33.80;11.82;;;;;;;;;;5033419;28;20032;-87
2021/12/15 02:02:50;;;;;;;36.10;12.38;;;;;;;;;;5033277;28;20441;-88
2021/12/15 02:05:15;;;;;;;26.08;12.00;;;;;;;;;;5033357;28;20056;-88
2021/12/15 02:07:43;;;;;;;38.75;12.45;;;;;;;;;;5016897;28;20402;-87
2021/12/15 02:10:08;;;;;;;28.60;13.25;;;;;;;;;;5015334;28;20061;-87
2021/12/15 02:12:36;;;;;;;25.67;11.68;;;;;;;;;;5032850;28;20091;-88
2021/12/15 02:15:04;;;;;;;34.50;12.25;;;;;;;;;;5014978;28;20049;-88
2021/12/15 02:17:29;;;;;;;25.98;12.68;;;;;;;;;;5015181;28;20013;-88
2021/12/15 02:19:54;;;;;;;32.88;11.95;;;;;;;;;;5015338;28;20098;-87
2021/12/15 02:22:20;;;;;;;40.70;13.73;;;;;;;;;;5033024;28;20025;-87
2021/12/15 02:24:48;;;;;;;29.23;14.23;;;;;;;;;;5015003;28;20030;-87
2021/12/15 02:27:14;;;;;;;35.70;14.60;;;;;;;;;;5033071;28;20432;-87
2021/12/15 02:29:42;;;;;;;34.00;15.52;;;;;;;;;;5032904;28;20083;-87
2021/12/15 02:37:17;;;;;;;41.25;16.33;;;;;;;;;;5033007;28;20033;-87
2021/12/15 02:39:48;;;;;;;40.58;16.63;;;;;;;;;;5032654;28;20018;-87
2021/12/15 02:42:14;;;;;;;39.33;17.50;;;;;;;;;;5014770;28;20513;-87
2021/12/15 02:44:43;;;;;;;44.33;17.30;;;;;;;;;;5032387;28;20033;-88
2021/12/15 02:47:09;;;;;;;44.28;19.42;;;;;;;;;;5014668;28;20018;-88
2021/12/15 02:49:34;;;;;;;42.92;18.67;;;;;;;;;;5032639;28;20028;-87
2021/12/15 02:52:00;;;;;;;49.30;19.58;;;;;;;;;;5033480;28;20022;-87
2021/12/15 02:54:26;;;;;;;47.80;20.85;;;;;;;;;;5014437;28;20025;-87
2021/12/15 02:56:53;;;;;;;61.05;21.42;;;;;;;;;;5014273;28;20014;-87
2021/12/15 02:59:20;;;;;;;58.40;23.17;;;;;;;;;;5032664;28;20025;-88
2021/12/15 03:02:05;;;;;;;50.40;21.85;;;;;;;;;;5032229;28;20017;-87
2021/12/15 03:04:49;;;;;;;59.22;20.92;;;;;;;;;;5014118;28;20041;-87
2021/12/15 03:07:28;;;;;;;51.65;21.85;;;;;;;;;;5013814;28;20034;-87
2021/12/15 03:15:35;;;;;;;56.42;22.08;;;;;;;;;;5032133;28;20047;-88
2021/12/15 03:18:00;;;;;;;50.47;21.48;;;;;;;;;;5014000;28;20377;-87
2021/12/15 03:20:26;;;;;;;56.33;21.60;;;;;;;;;;5031777;28;20029;-87
2021/12/15 03:22:52;;;;;;;53.22;21.55;;;;;;;;;;5031860;28;21005;-88
2021/12/15 03:25:17;;;;;;;45.88;22.50;;;;;;;;;;5032113;28;20096;-87
2021/12/15 03:33:29;;;;;;;60.42;24.98;;;;;;;;;;5031763;28;20102;-87
2021/12/15 03:36:07;;;;;;;52.42;22.20;;;;;;;;;;5013959;28;20061;-88
2021/12/15 03:38:34;;;;;;;59.17;24.40;;;;;;;;;;5032916;28;20404;-87
2021/12/15 03:40:59;;;;;;;53.70;22.95;;;;;;;;;;5013654;28;20025;-88
2021/12/15 03:43:24;;;;;;;57.75;24.48;;;;;;;;;;5031300;28;20036;-87
2021/12/15 03:45:55;;;;;;;65.60;26.35;;;;;;;;;;5031243;28;20026;-88
2021/12/15 03:48:22;;;;;;;61.10;25.35;;;;;;;;;;5031529;28;20018;-87
2021/12/15 03:50:48;;;;;;;48.92;26.00;;;;;;;;;;5013544;28;20469;-87
2021/12/15 03:53:14;;;;;;;60.38;26.58;;;;;;;;;;5031031;28;20040;-87
2021/12/15 03:55:39;;;;;;;60.00;26.55;;;;;;;;;;5031214;28;20465;-87
2021/12/15 03:58:09;;;;;;;65.50;27.95;;;;;;;;;;5032511;28;20037;-87
2021/12/15 04:00:35;;;;;;;73.85;27.98;;;;;;;;;;5013240;28;20397;-87
2021/12/15 04:03:00;;;;;;;61.45;27.70;;;;;;;;;;5030910;28;20461;-87
2021/12/15 04:05:25;;;;;;;69.55;28.77;;;;;;;;;;5030958;28;20022;-88
2021/12/15 04:07:52;;;;;;;67.38;28.75;;;;;;;;;;5031092;28;20017;-88
2021/12/15 04:10:18;;;;;;;63.45;28.55;;;;;;;;;;5013510;28;20029;-88
2021/12/15 04:12:44;;;;;;;66.78;29.27;;;;;;;;;;5013148;28;20416;-88
2021/12/15 04:15:26;;;;;;;75.97;30.25;;;;;;;;;;5013293;28;20112;-88
2021/12/15 04:17:58;;;;;;;67.97;30.60;;;;;;;;;;5030333;28;20018;-88
2021/12/15 04:20:24;;;;;;;82.22;33.05;;;;;;;;;;5012442;28;20420;-88
2021/12/15 04:22:49;;;;;;;73.18;30.63;;;;;;;;;;5012760;28;20077;-88
2021/12/15 04:25:18;;;;;;;75.95;31.48;;;;;;;;;;5030827;28;20029;-87
2021/12/15 04:27:52;;;;;;;79.47;31.58;;;;;;;;;;5033525;28;20484;-87
2021/12/15 04:30:17;;;;;;;75.50;31.30;;;;;;;;;;5012764;28;20029;-88
2021/12/15 04:32:44;;;;;;;89.05;34.00;;;;;;;;;;5030449;28;20025;-87
2021/12/15 04:35:10;;;;;;;81.03;34.05;;;;;;;;;;5012417;28;20041;-87
2021/12/15 04:37:35;;;;;;;80.45;30.90;;;;;;;;;;5030366;28;20469;-87
2021/12/15 04:40:01;;;;;;;85.18;33.70;;;;;;;;;;5012308;28;20029;-87
2021/12/15 04:42:27;;;;;;;80.50;30.48;;;;;;;;;;5012797;28;20465;-87
2021/12/15 04:44:56;;;;;;;81.05;32.53;;;;;;;;;;5030380;28;20112;-88
2021/12/15 04:47:21;;;;;;;75.93;32.60;;;;;;;;;;5012339;28;20032;-88
2021/12/15 04:49:50;;;;;;;81.30;32.63;;;;;;;;;;5030445;28;20033;-88
2021/12/15 04:52:16;;;;;;;85.80;34.13;;;;;;;;;;5013918;28;20022;-88
2021/12/15 04:54:42;;;;;;;73.60;30.48;;;;;;;;;;5030343;28;20023;-88
2021/12/15 04:57:08;;;;;;;79.57;32.58;;;;;;;;;;5030192;28;20385;-88
2021/12/15 04:59:33;;;;;;;70.78;31.65;;;;;;;;;;5012538;28;20033;-88
2021/12/15 05:01:58;;;;;;;71.55;33.45;;;;;;;;;;5029967;28;20057;-88
2021/12/15 05:04:24;;;;;;;72.25;29.20;;;;;;;;;;5029734;28;20036;-87
2021/12/15 05:06:49;;;;;;;63.22;30.33;;;;;;;;;;5029947;28;20028;-87
2021/12/15 05:09:15;;;;;;;72.82;29.33;;;;;;;;;;5029905;28;20029;-87
2021/12/15 05:11:41;;;;;;;59.90;29.27;;;;;;;;;;5011996;28;20053;-87
2021/12/15 05:14:06;;;;;;;67.03;30.38;;;;;;;;;;5029813;28;20025;-88
2021/12/15 05:16:31;;;;;;;73.15;30.75;;;;;;;;;;5023359;28;20043;-87
2021/12/15 05:18:57;;;;;;;65.22;29.60;;;;;;;;;;5022032;28;20367;-88
2021/12/15 05:21:23;;;;;;;64.88;30.15;;;;;;;;;;5028051;28;20087;-87
2021/12/15 05:23:54;;;;;;;72.13;29.70;;;;;;;;;;5028276;28;20025;-87
2021/12/15 05:26:20;;;;;;;64.90;28.52;;;;;;;;;;5027902;28;20135;-87
2021/12/15 05:28:45;;;;;;;56.03;28.88;;;;;;;;;;5028271;28;20108;-87
2021/12/15 05:31:10;;;;;;;64.38;29.20;;;;;;;;;;5031081;28;20091;-87
2021/12/15 05:33:35;;;;;;;61.78;30.45;;;;;;;;;;5034276;28;20036;-88
2021/12/15 05:36:01;;;;;;;64.53;30.50;;;;;;;;;;5016123;28;20043;-88
2021/12/15 05:38:26;;;;;;;78.13;30.95;;;;;;;;;;5033006;28;20829;-87
2021/12/15 05:40:52;;;;;;;64.25;30.20;;;;;;;;;;5031843;28;20048;-87
2021/12/15 05:43:17;;;;;;;64.57;29.35;;;;;;;;;;5031741;28;20056;-88
2021/12/15 05:45:42;;;;;;;65.43;29.83;;;;;;;;;;5033151;28;20714;-88
2021/12/15 05:48:10;;;;;;;76.05;28.77;;;;;;;;;;5031594;28;20107;-88
2021/12/15 05:50:35;;;;;;;61.78;28.38;;;;;;;;;;5012012;28;20025;-88
2021/12/15 05:53:01;;;;;;;54.50;28.60;;;;;;;;;;5013534;28;20616;-87
2021/12/15 05:55:28;;;;;;;67.50;29.50;;;;;;;;;;5031974;28;20025;-88
2021/12/15 05:57:53;;;;;;;74.15;27.80;;;;;;;;;;5038324;28;20805;-87
2021/12/15 06:00:20;;;;;;;61.83;27.73;;;;;;;;;;5014014;28;20036;-88
2021/12/15 06:02:45;;;;;;;66.30;27.45;;;;;;;;;;5031759;28;20516;-88
2021/12/15 06:05:11;;;;;;;64.30;25.92;;;;;;;;;;5013947;28;20061;-88
2021/12/15 06:07:36;;;;;;;60.70;26.92;;;;;;;;;;5032886;28;20049;-88
2021/12/15 06:10:03;;;;;;;57.58;27.48;;;;;;;;;;5015705;28;20032;-87
2021/12/15 06:12:28;;;;;;;64.78;26.58;;;;;;;;;;5013396;28;20511;-87
2021/12/15 06:14:54;;;;;;;58.35;25.83;;;;;;;;;;5013557;28;20037;-88
2021/12/15 06:17:25;;;;;;;55.80;25.75;;;;;;;;;;5013423;28;20541;-87
2021/12/15 06:19:50;;;;;;;57.25;28.38;;;;;;;;;;5031507;28;20108;-87
2021/12/15 06:22:19;;;;;;;59.47;24.63;;;;;;;;;;5013405;28;20172;-88
2021/12/15 06:24:44;;;;;;;58.40;25.83;;;;;;;;;;5013638;28;20083;-88
2021/12/15 06:27:17;;;;;;;63.20;26.27;;;;;;;;;;5031312;28;20101;-88
2021/12/15 06:29:42;;;;;;;55.28;25.60;;;;;;;;;;5013253;28;20025;-88
2021/12/15 06:32:08;;;;;;;58.08;23.50;;;;;;;;;;5035136;28;20824;-87
2021/12/15 06:34:33;;;;;;;53.95;23.48;;;;;;;;;;5014490;28;20124;-88
2021/12/15 06:36:58;;;;;;;52.50;22.80;;;;;;;;;;5013462;28;20017;-88
2021/12/15 06:39:24;;;;;;;52.65;22.33;;;;;;;;;;5013603;28;20061;-88
2021/12/15 06:41:49;;;;;;;43.83;22.08;;;;;;;;;;5030423;28;20479;-88
2021/12/15 06:44:16;;;;;;;55.92;22.20;;;;;;;;;;5013624;28;20113;-88
2021/12/15 07:00:10;;;;;;;49.33;20.08;;;;;;;;;;5030946;28;20536;-88
2021/12/15 07:02:36;;;;;;;41.92;18.80;;;;;;;;;;5012200;28;20028;-87
2021/12/15 07:05:01;;;;;;;45.03;18.65;;;;;;;;;;5030522;28;20481;-88
2021/12/15 07:07:27;;;;;;;40.72;18.15;;;;;;;;;;5030867;28;20363;-87
2021/12/15 07:09:52;;;;;;;43.92;19.33;;;;;;;;;;5012505;28;20031;-87
2021/12/15 07:12:17;;;;;;;38.67;18.25;;;;;;;;;;5012346;28;20490;-88
2021/12/15 07:14:42;;;;;;;42.45;18.10;;;;;;;;;;5030715;28;20379;-88
2021/12/15 07:17:14;;;;;;;42.20;18.05;;;;;;;;;;5031249;28;20025;-88
2021/12/15 07:24:55;;;;;;;51.97;18.92;;;;;;;;;;5030082;28;20488;-87
2021/12/15 07:27:20;;;;;;;51.42;18.35;;;;;;;;;;5030310;28;20061;-88
2021/12/15 07:29:45;;;;;;;49.22;19.45;;;;;;;;;;5030901;28;20056;-87
2021/12/15 07:32:11;;;;;;;48.63;18.23;;;;;;;;;;5030373;28;20123;-88
2021/12/15 07:34:36;;;;;;;44.00;17.70;;;;;;;;;;5012056;28;20575;-88
2021/12/15 07:37:01;;;;;;;44.78;17.95;;;;;;;;;;5012540;28;20029;-87
2021/12/15 07:39:26;;;;;;;43.58;18.98;;;;;;;;;;5032710;28;20036;-87
2021/12/15 07:42:02;;;;;;;49.88;17.40;;;;;;;;;;5030001;28;20093;-88
2021/12/15 07:44:27;;;;;;;44.95;17.80;;;;;;;;;;5011738;28;20061;-87
2021/12/15 07:46:52;;;;;;;44.65;18.10;;;;;;;;;;5029883;28;20288;-87
2021/12/15 07:49:19;;;;;;;43.85;16.92;;;;;;;;;;5011878;28;20022;-88
2021/12/15 07:51:45;;;;;;;45.20;17.17;;;;;;;;;;5029341;28;20044;-87
2021/12/15 07:54:11;;;;;;;49.00;17.38;;;;;;;;;;5029571;28;20028;-87
2021/12/15 07:56:36;;;;;;;46.80;18.20;;;;;;;;;;5029707;28;20104;-88
2021/12/15 07:59:01;;;;;;;50.47;16.83;;;;;;;;;;5029558;28;20924;-87
2021/12/15 08:01:27;;;;;;;40.80;17.45;;;;;;;;;;5033349;28;20612;-87
2021/12/15 08:03:54;;;;;;;43.92;17.90;;;;;;;;;;5011535;28;20030;-87
2021/12/15 08:06:20;;;;;;;42.72;17.40;;;;;;;;;;5011385;28;20026;-87
2021/12/15 08:08:45;;;;;;;43.50;17.20;;;;;;;;;;5029199;28;20033;-87
2021/12/15 08:11:11;;;;;;;48.15;16.42;;;;;;;;;;5028866;28;20057;-88
2021/12/15 08:13:36;;;;;;;42.35;15.50;;;;;;;;;;5011594;28;20054;-88
2021/12/15 08:16:02;;;;;;;41.28;16.17;;;;;;;;;;5029298;28;20763;-87
2021/12/15 08:18:27;;;;;;;43.35;16.67;;;;;;;;;;5029708;28;20022;-87
2021/12/15 08:20:53;;;;;;;52.30;16.27;;;;;;;;;;5013931;28;20029;-87
2021/12/15 08:23:18;;;;;;;43.97;15.88;;;;;;;;;;5029444;28;20684;-88
2021/12/15 08:25:44;;;;;;;33.95;14.98;;;;;;;;;;5029566;28;20029;-88
2021/12/15 08:28:10;;;;;;;47.85;16.25;;;;;;;;;;5011728;28;20033;-88
2021/12/15 08:30:37;;;;;;;43.67;15.80;;;;;;;;;;5029323;28;20017;-88
2021/12/15 08:33:04;;;;;;;44.50;16.02;;;;;;;;;;5011245;28;20052;-88
2021/12/15 08:35:31;;;;;;;42.67;16.55;;;;;;;;;;5029219;28;20555;-88
2021/12/15 08:37:57;;;;;;;47.80;17.90;;;;;;;;;;5029648;28;20612;-88
2021/12/15 08:40:24;;;;;;;45.90;16.80;;;;;;;;;;5029308;28;20032;-88
2021/12/15 08:42:49;;;;;;;41.80;15.88;;;;;;;;;;5029102;28;20022;-88
2021/12/15 08:45:15;;;;;;;45.28;16.80;;;;;;;;;;5011315;28;20021;-88
2021/12/15 08:47:40;;;;;;;36.22;14.63;;;;;;;;;;5029894;28;20033;-88
2021/12/15 08:50:07;;;;;;;38.78;15.23;;;;;;;;;;5028957;28;20026;-88
2021/12/15 08:52:33;;;;;;;49.42;16.20;;;;;;;;;;5029253;28;20107;-88
2021/12/15 08:54:59;;;;;;;47.22;16.55;;;;;;;;;;5028791;28;20838;-87
2021/12/15 08:57:24;;;;;;;48.38;17.33;;;;;;;;;;5028341;28;20025;-88
2021/12/15 08:59:49;;;;;;;41.22;15.05;;;;;;;;;;5028331;28;20476;-88
2021/12/15 09:02:15;;;;;;;38.15;13.98;;;;;;;;;;5027273;28;20033;-87
2021/12/15 09:04:40;;;;;;;48.50;16.65;;;;;;;;;;5010500;28;20038;-88
2021/12/15 09:07:06;;;;;;;56.30;18.30;;;;;;;;;;5028848;28;20314;-88
2021/12/15 09:09:32;;;;;;;49.40;15.85;;;;;;;;;;5027901;28;20021;-87
2021/12/15 09:11:57;;;;;;;52.97;17.02;;;;;;;;;;5029479;28;20073;-87
2021/12/15 09:14:23;;;;;;;49.20;16.13;;;;;;;;;;5015903;28;20152;-88
2021/12/15 09:16:50;;;;;;;43.72;15.13;;;;;;;;;;5015219;28;20037;-87
2021/12/15 09:19:15;;;;;;;42.20;16.17;;;;;;;;;;5440955;22;20053;-88
2021/12/15 09:24:15;;;;;;;41.72;15.55;;;;;;;;;;5160134;22;20057;-87
2021/12/15 09:26:41;;;;;;;41.15;14.80;;;;;;;;;;5011936;28;20033;-88
2021/12/15 09:29:06;;;;;;;40.58;15.65;;;;;;;;;;4978773;28;20033;-87
2021/12/15 09:31:32;;;;;;;37.67;14.07;;;;;;;;;;5000771;28;20025;-87
2021/12/15 09:33:59;;;;;;;40.30;13.88;;;;;;;;;;4981754;28;20142;-88
2021/12/15 09:36:26;;;;;;;34.50;14.05;;;;;;;;;;4974023;28;20113;-87
2021/12/15 09:38:53;;;;;;;39.42;13.50;;;;;;;;;;4979075;28;20029;-87
2021/12/15 09:41:18;;;;;;;50.65;14.88;;;;;;;;;;5011780;28;20321;-87
2021/12/15 09:43:44;;;;;;;35.47;14.18;;;;;;;;;;4993226;28;20030;-87
2021/12/15 09:57:47;;;;;;;31.65;12.38;;;;;;;;;;5031282;28;21384;-88
2021/12/15 10:03:04;;;;;;;30.48;10.02;;;;;;;;;;5015005;28;20848;-88
2021/12/15 10:11:15;;;;;;;28.27;9.95;;;;;;;;;;5010742;28;20041;-88
2021/12/15 10:17:40;;;;;;;24.55;7.90;;;;;;;;;;5011954;28;20036;-88
2021/12/15 10:19:34;;;;;;;31.45;7.18;;;;;;;;;;4998766;28;20045;-87
2021/12/15 10:21:59;;;;;;;19.30;4.68;;;;;;;;;;5012441;28;20022;-88
2021/12/15 10:24:33;;;;;;;21.30;4.55;;;;;;;;;;5000940;28;20140;-88
2021/12/15 10:27:00;;;;;;;14.63;3.33;;;;;;;;;;4995922;28;20017;-88
2021/12/15 10:29:25;;;;;;;10.93;3.25;;;;;;;;;;5029627;28;20021;-89
2021/12/15 10:31:59;;;;;;;15.63;3.20;;;;;;;;;;5032052;28;20556;-88
2021/12/15 10:34:24;;;;;;;10.30;3.25;;;;;;;;;;5013994;28;20087;-88
2021/12/15 10:36:50;;;;;;;12.85;3.05;;;;;;;;;;5031770;28;20029;-88
2021/12/15 10:39:15;;;;;;;13.63;3.33;;;;;;;;;;5032729;28;20036;-88
2021/12/15 10:41:41;;;;;;;12.68;3.55;;;;;;;;;;5032298;28;20086;-88
2021/12/15 10:44:09;;;;;;;16.27;3.60;;;;;;;;;;5010832;28;20393;-88
2021/12/15 10:46:48;;;;;;;13.18;4.30;;;;;;;;;;5021248;28;20028;-88
2021/12/15 10:49:20;;;;;;;11.60;2.75;;;;;;;;;;5014389;28;20752;-89
2021/12/15 10:51:47;;;;;;;10.27;2.90;;;;;;;;;;5011151;28;20053;-88
2021/12/15 10:54:20;;;;;;;13.65;3.13;;;;;;;;;;5012091;28;20061;-88
2021/12/15 10:56:58;;;;;;;9.75;2.80;;;;;;;;;;5024546;28;20029;-88
2021/12/15 10:59:25;;;;;;;13.88;3.20;;;;;;;;;;5031976;28;20029;-88
2021/12/15 11:01:56;;;;;;;21.17;3.38;;;;;;;;;;5031848;28;20111;-88
2021/12/15 11:04:24;;;;;;;17.17;4.00;;;;;;;;;;5029725;28;20759;-88
2021/12/15 11:07:18;;;;;;;19.50;6.07;;;;;;;;;;5030746;28;20547;-88
2021/12/15 11:09:45;;;;;;;18.27;4.85;;;;;;;;;;5003592;28;20502;-88
2021/12/15 11:12:29;;;;;;;24.70;5.00;;;;;;;;;;5030855;28;20056;-88
2021/12/15 11:14:59;;;;;;;29.35;5.75;;;;;;;;;;5029676;28;20021;-88
2021/12/15 11:17:26;;;;;;;19.13;5.20;;;;;;;;;;5013344;28;20021;-89
2021/12/15 11:19:54;;;;;;;22.67;4.60;;;;;;;;;;5013158;28;20426;-88
2021/12/15 11:22:58;;;;;;;15.77;4.13;;;;;;;;;;5012992;28;20427;-88
2021/12/15 11:25:29;;;;;;;13.32;4.28;;;;;;;;;;4970508;28;20090;-88
2021/12/15 11:28:06;;;;;;;13.35;3.47;;;;;;;;;;4968613;28;20034;-88
2021/12/15 11:30:34;;;;;;;16.90;3.88;;;;;;;;;;4983379;28;20116;-88
2021/12/15 11:33:22;;;;;;;11.85;3.72;;;;;;;;;;5023961;28;20026;-88
2021/12/15 11:36:11;;;;;;;11.00;2.92;;;;;;;;;;5006777;28;20033;-88
2021/12/15 11:38:37;;;;;;;10.25;3.70;;;;;;;;;;5021836;28;20038;-88
2021/12/15 11:41:06;;;;;;;16.35;4.15;;;;;;;;;;5029810;28;20021;-88
2021/12/15 11:43:39;;;;;;;10.45;2.90;;;;;;;;;;5028882;28;20472;-88
2021/12/15 11:46:19;;;;;;;16.50;2.80;;;;;;;;;;5013003;28;20021;-88
2021/12/15 11:48:53;;;;;;;7.45;2.58;;;;;;;;;;5029427;28;20479;-89
2021/12/15 11:51:33;;;;;;;7.30;2.85;;;;;;;;;;5030243;28;20017;-88
2021/12/15 11:53:59;;;;;;;8.73;2.72;;;;;;;;;;5042134;28;20088;-88
2021/12/15 11:56:30;;;;;;;10.32;2.70;;;;;;;;;;5029046;28;20023;-88
2021/12/15 11:59:00;;;;;;;21.30;3.58;;;;;;;;;;5011794;28;20029;-88
2021/12/15 12:01:44;;;;;;;10.60;3.38;;;;;;;;;;5011334;28;20076;-89
2021/12/15 12:04:10;;;;;;;10.20;2.70;;;;;;;;;;5027622;28;20112;-88
2021/12/15 12:06:35;;;;;;;13.50;3.42;;;;;;;;;;5029726;28;20105;-88
2021/12/15 12:09:00;;;;;;;16.05;4.10;;;;;;;;;;5011862;28;20495;-89
2021/12/15 12:11:25;;;;;;;14.07;4.25;;;;;;;;;;5011776;28;20482;-88
2021/12/15 12:13:58;;;;;;;18.08;3.90;;;;;;;;;;5028959;28;20013;-88
2021/12/15 12:16:24;;;;;;;20.98;4.95;;;;;;;;;;5027800;28;20040;-88
2021/12/15 12:18:51;;;;;;;28.45;5.95;;;;;;;;;;5029596;28;20024;-88
2021/12/15 12:21:16;;;;;;;22.70;4.70;;;;;;;;;;5029169;28;20025;-89
2021/12/15 12:23:45;;;;;;;24.33;5.32;;;;;;;;;;5010735;28;20401;-88
2021/12/15 12:26:11;;;;;;;26.92;5.50;;;;;;;;;;5028521;28;20025;-88
2021/12/15 12:28:37;;;;;;;21.33;5.68;;;;;;;;;;5012058;28;20040;-88
2021/12/15 12:31:05;;;;;;;18.55;4.88;;;;;;;;;;5027064;28;20508;-88
2021/12/15 12:33:30;;;;;;;22.50;5.85;;;;;;;;;;5010914;28;20782;-88
2021/12/15 12:36:09;;;;;;;19.95;5.05;;;;;;;;;;5011026;28;20029;-88
2021/12/15 12:38:37;;;;;;;26.00;5.22;;;;;;;;;;5028735;28;20051;-89
2021/12/15 12:41:04;;;;;;;17.27;4.78;;;;;;;;;;5028234;28;20108;-89
2021/12/15 12:43:30;;;;;;;23.58;4.95;;;;;;;;;;5010584;28;20342;-89
2021/12/15 12:46:08;;;;;;;16.77;4.70;;;;;;;;;;5028945;28;20764;-89
2021/12/15 12:48:56;;;;;;;18.38;4.78;;;;;;;;;;5026775;28;20280;-89
2021/12/15 12:59:44;;;;;;;16.55;5.40;;;;;;;;;;5027812;28;20087;-88
2021/12/15 13:02:43;;;;;;;20.95;6.05;;;;;;;;;;5027730;28;20025;-89
2021/12/15 13:05:27;;;;;;;20.75;5.60;;;;;;;;;;5002358;28;20048;-88
2021/12/15 13:07:54;;;;;;;27.75;5.40;;;;;;;;;;5027133;28;20476;-88
2021/12/15 13:10:20;;;;;;;21.45;6.45;;;;;;;;;;5026812;28;20068;-89
2021/12/15 13:12:47;;;;;;;17.63;5.70;;;;;;;;;;5010506;28;20440;-88
2021/12/15 13:15:21;;;;;;;17.63;5.07;;;;;;;;;;5028540;28;20103;-89
2021/12/15 13:17:54;;;;;;;26.70;7.75;;;;;;;;;;5006248;28;20025;-88
2021/12/15 13:20:23;;;;;;;14.63;6.32;;;;;;;;;;4990499;28;20049;-89
2021/12/15 13:23:05;;;;;;;21.73;5.30;;;;;;;;;;5004565;28;20049;-89
2021/12/15 13:31:08;;;;;;;15.00;5.28;;;;;;;;;;5028795;28;20903;-88
2021/12/15 13:33:34;;;;;;;19.38;4.75;;;;;;;;;;5027041;28;20061;-88
2021/12/15 13:36:19;;;;;;;24.38;5.05;;;;;;;;;;5027661;28;20028;-89
2021/12/15 13:38:45;;;;;;;17.73;4.88;;;;;;;;;;5011091;28;20095;-88
2021/12/15 13:44:02;;;;;;;12.32;4.47;;;;;;;;;;5027953;28;20300;-88
2021/12/15 13:46:27;;;;;;;12.38;4.40;;;;;;;;;;5025746;28;20441;-88
2021/12/15 13:48:57;;;;;;;15.85;3.97;;;;;;;;;;5026477;28;20108;-89
2021/12/15 13:51:41;;;;;;;13.25;4.47;;;;;;;;;;5011441;28;20036;-88
2021/12/15 13:54:19;;;;;;;11.60;4.90;;;;;;;;;;5029070;28;20718;-88
2021/12/15 13:56:49;;;;;;;9.20;3.67;;;;;;;;;;5013164;28;20045;-89
2021/12/15 13:59:47;;;;;;;10.82;3.90;;;;;;;;;;5030105;28;20025;-88
2021/12/15 14:02:15;;;;;;;18.15;4.30;;;;;;;;;;4987592;28;20129;-88
2021/12/15 14:04:41;;;;;;;13.35;4.70;;;;;;;;;;5004785;28;20091;-88
2021/12/15 14:07:45;;;;;;;15.60;3.30;;;;;;;;;;5030851;28;20033;-89
2021/12/15 14:10:11;;;;;;;17.02;4.95;;;;;;;;;;4950187;29;20514;-88
2021/12/15 14:12:45;;;;;;;17.10;3.55;;;;;;;;;;4950167;29;20162;-88
2021/12/15 14:15:10;;;;;;;9.05;2.90;;;;;;;;;;4981427;28;20076;-89
2021/12/15 14:17:36;;;;;;;16.50;4.45;;;;;;;;;;5029599;28;20021;-88
2021/12/15 14:20:08;;;;;;;13.10;3.92;;;;;;;;;;5013040;28;20028;-88
2021/12/15 14:22:33;;;;;;;16.15;4.43;;;;;;;;;;5013312;28;20021;-88
2021/12/15 14:25:02;;;;;;;11.20;4.75;;;;;;;;;;5030272;28;20049;-88
2021/12/15 14:27:27;;;;;;;19.27;5.45;;;;;;;;;;5030467;28;20075;-88
2021/12/15 14:29:52;;;;;;;15.88;4.40;;;;;;;;;;5012478;28;20483;-88
2021/12/15 14:32:17;;;;;;;18.50;5.22;;;;;;;;;;5012737;28;20495;-88
2021/12/15 14:34:43;;;;;;;20.20;5.00;;;;;;;;;;5012550;28;20067;-89
2021/12/15 14:37:13;;;;;;;20.40;4.97;;;;;;;;;;5030252;28;20029;-89
2021/12/15 14:39:39;;;;;;;15.93;4.15;;;;;;;;;;5030044;28;20025;-88
2021/12/15 14:42:15;;;;;;;10.85;3.50;;;;;;;;;;5029851;28;20025;-88
2021/12/15 14:44:43;;;;;;;18.17;5.30;;;;;;;;;;5029471;28;20079;-88
2021/12/15 14:47:11;;;;;;;14.35;4.55;;;;;;;;;;5029692;28;20092;-88
2021/12/15 14:49:40;;;;;;;20.58;4.30;;;;;;;;;;5012889;28;20132;-87
2021/12/15 14:52:16;;;;;;;18.98;4.05;;;;;;;;;;5029600;28;20033;-88
2021/12/15 14:54:43;;;;;;;15.45;4.60;;;;;;;;;;5029684;28;20932;-88
2021/12/15 14:57:10;;;;;;;16.92;4.05;;;;;;;;;;5032751;28;20025;-88
2021/12/15 14:59:37;;;;;;;12.38;4.05;;;;;;;;;;5029645;28;20024;-89
2021/12/15 15:02:08;;;;;;;20.33;5.47;;;;;;;;;;5029267;28;20032;-88
2021/12/15 15:04:34;;;;;;;21.02;4.75;;;;;;;;;;5029573;28;20460;-88
2021/12/15 15:07:02;;;;;;;15.77;4.60;;;;;;;;;;5029651;28;20041;-88
2021/12/15 15:09:32;;;;;;;20.67;4.43;;;;;;;;;;5011767;28;20528;-88
2021/12/15 15:12:06;;;;;;;26.15;4.78;;;;;;;;;;5029763;28;20028;-88
2021/12/15 15:14:33;;;;;;;24.75;4.50;;;;;;;;;;5012218;28;20025;-89
2021/12/15 15:16:59;;;;;;;25.05;5.10;;;;;;;;;;5012173;28;20025;-88
2021/12/15 15:19:24;;;;;;;19.90;4.40;;;;;;;;;;5011043;28;20366;-88
2021/12/15 15:21:52;;;;;;;26.45;5.22;;;;;;;;;;5011392;28;20783;-88
2021/12/15 15:24:26;;;;;;;24.05;6.03;;;;;;;;;;5027593;28;20040;-88
2021/12/15 15:26:52;;;;;;;16.27;5.00;;;;;;;;;;5029106;28;20025;-88
2021/12/15 15:29:26;;;;;;;20.42;6.60;;;;;;;;;;5029167;28;20445;-88
2021/12/15 15:31:52;;;;;;;24.88;4.93;;;;;;;;;;5010482;28;20028;-88
2021/12/15 15:34:17;;;;;;;19.30;4.68;;;;;;;;;;5011219;28;20021;-88
2021/12/15 15:36:42;;;;;;;19.77;5.65;;;;;;;;;;5012394;28;20111;-88
2021/12/15 15:39:09;;;;;;;23.50;5.95;;;;;;;;;;5028903;28;20032;-89
2021/12/15 15:41:34;;;;;;;23.52;5.40;;;;;;;;;;5027421;28;20049;-88
2021/12/15 15:44:07;;;;;;;19.70;5.07;;;;;;;;;;5011766;28;20069;-88
2021/12/15 15:46:36;;;;;;;29.98;6.60;;;;;;;;;;5030140;28;20028;-89
2021/12/15 15:49:07;;;;;;;21.80;5.50;;;;;;;;;;5012284;28;20025;-88
2021/12/15 15:51:36;;;;;;;31.17;5.80;;;;;;;;;;5028723;28;20030;-88
2021/12/15 15:54:03;;;;;;;26.10;5.35;;;;;;;;;;5028643;28;20049;-89
2021/12/15 15:56:30;;;;;;;25.98;5.55;;;;;;;;;;5029813;28;20037;-88